sensor_id;sensor_type;location;lat;lon;timestamp;pressure;altitude;pressure_sealevel;temperature;humidity
51603;BME280;37954;51.980;5.850;2023-08-01T00:03:34;99527.38;;;17.64;99.96
51603;BME280;37954;51.980;5.850;2023-08-01T00:07:46;99540.03;;;17.68;100.00
51603;BME280;37954;51.980;5.850;2023-08-01T00:11:58;99535.22;;;17.65;100.00
51603;BME280;37954;51.980;5.850;2023-08-01T00:16:10;99545.53;;;17.63;99.86
51603;BME280;37954;51.980;5.850;2023-08-01T00:20:22;99536.97;;;17.56;99.92
51603;BME280;37954;51.980;5.850;2023-08-01T00:24:35;99528.22;;;17.46;99.57
51603;BME280;37954;51.980;5.850;2023-08-01T00:28:47;99530.41;;;17.44;99.67
51603;BME280;37954;51.980;5.850;2023-08-01T00:32:58;99515.38;;;17.32;99.30
51603;BME280;37954;51.980;5.850;2023-08-01T00:37:11;99502.44;;;17.29;99.24
51603;BME280;37954;51.980;5.850;2023-08-01T00:41:22;99488.66;;;17.26;98.97
51603;BME280;37954;51.980;5.850;2023-08-01T00:45:34;99509.78;;;17.29;99.05
51603;BME280;37954;51.980;5.850;2023-08-01T00:49:46;99483.38;;;17.16;98.85
51603;BME280;37954;51.980;5.850;2023-08-01T00:54:00;99489.53;;;17.21;98.99
51603;BME280;37954;51.980;5.850;2023-08-01T00:58:11;99477.16;;;17.15;98.79
51603;BME280;37954;51.980;5.850;2023-08-01T01:02:23;99469.50;;;17.17;98.74
51603;BME280;37954;51.980;5.850;2023-08-01T01:10:55;99473.75;;;17.23;98.59
51603;BME280;37954;51.980;5.850;2023-08-01T01:15:07;99484.09;;;17.21;98.95
51603;BME280;37954;51.980;5.850;2023-08-01T01:19:19;99469.22;;;17.19;98.86
51603;BME280;37954;51.980;5.850;2023-08-01T01:23:31;99487.34;;;17.23;98.93
51603;BME280;37954;51.980;5.850;2023-08-01T01:27:43;99467.09;;;17.16;98.94
51603;BME280;37954;51.980;5.850;2023-08-01T01:32:01;99477.06;;;17.20;98.98
51603;BME280;37954;51.980;5.850;2023-08-01T01:36:39;99468.19;;;17.15;98.96
51603;BME280;37954;51.980;5.850;2023-08-01T01:40:51;99473.44;;;17.11;98.83
51603;BME280;37954;51.980;5.850;2023-08-01T01:45:03;99468.59;;;17.08;99.04
51603;BME280;37954;51.980;5.850;2023-08-01T01:49:15;99469.09;;;17.10;99.06
51603;BME280;37954;51.980;5.850;2023-08-01T01:53:26;99464.56;;;17.05;98.90
51603;BME280;37954;51.980;5.850;2023-08-01T01:57:38;99463.44;;;16.93;98.71
51603;BME280;37954;51.980;5.850;2023-08-01T02:01:50;99455.72;;;16.81;98.32
51603;BME280;37954;51.980;5.850;2023-08-01T02:06:02;99455.69;;;16.67;98.05
51603;BME280;37954;51.980;5.850;2023-08-01T02:10:14;99452.00;;;16.58;98.08
51603;BME280;37954;51.980;5.850;2023-08-01T02:14:26;99460.50;;;16.52;98.02
51603;BME280;37954;51.980;5.850;2023-08-01T02:18:38;99449.03;;;16.41;98.47
51603;BME280;37954;51.980;5.850;2023-08-01T02:22:49;99460.22;;;16.34;98.69
51603;BME280;37954;51.980;5.850;2023-08-01T02:27:01;99450.53;;;16.28;99.26
51603;BME280;37954;51.980;5.850;2023-08-01T02:31:13;99442.50;;;16.23;99.27
51603;BME280;37954;51.980;5.850;2023-08-01T02:35:25;99436.63;;;16.16;99.38
51603;BME280;37954;51.980;5.850;2023-08-01T02:39:36;99447.22;;;16.13;99.58
51603;BME280;37954;51.980;5.850;2023-08-01T02:43:48;99444.31;;;16.09;99.65
51603;BME280;37954;51.980;5.850;2023-08-01T02:48:00;99448.41;;;16.07;99.94
51603;BME280;37954;51.980;5.850;2023-08-01T02:52:12;99446.03;;;16.00;99.92
51603;BME280;37954;51.980;5.850;2023-08-01T02:56:23;99458.50;;;16.01;100.00
51603;BME280;37954;51.980;5.850;2023-08-01T03:00:38;99452.22;;;16.06;100.00
51603;BME280;37954;51.980;5.850;2023-08-01T03:04:51;99443.00;;;16.07;100.00
51603;BME280;37954;51.980;5.850;2023-08-01T03:09:03;99454.41;;;16.04;100.00
51603;BME280;37954;51.980;5.850;2023-08-01T03:13:14;99457.91;;;16.04;100.00
51603;BME280;37954;51.980;5.850;2023-08-01T03:17:26;99438.44;;;16.02;100.00
51603;BME280;37954;51.980;5.850;2023-08-01T03:21:38;99445.19;;;16.05;100.00
51603;BME280;37954;51.980;5.850;2023-08-01T03:25:50;99447.59;;;16.06;100.00
51603;BME280;37954;51.980;5.850;2023-08-01T03:30:03;99453.16;;;16.15;100.00
51603;BME280;37954;51.980;5.850;2023-08-01T03:34:15;99449.06;;;16.17;100.00
51603;BME280;37954;51.980;5.850;2023-08-01T03:38:27;99445.72;;;16.25;100.00
51603;BME280;37954;51.980;5.850;2023-08-01T03:42:39;99450.19;;;16.35;100.00
51603;BME280;37954;51.980;5.850;2023-08-01T03:46:52;99448.22;;;16.41;100.00
51603;BME280;37954;51.980;5.850;2023-08-01T03:51:05;99454.28;;;16.51;100.00
51603;BME280;37954;51.980;5.850;2023-08-01T03:55:17;99459.13;;;16.54;100.00
51603;BME280;37954;51.980;5.850;2023-08-01T03:59:28;99465.00;;;16.61;100.00
51603;BME280;37954;51.980;5.850;2023-08-01T04:03:40;99456.34;;;16.59;100.00
51603;BME280;37954;51.980;5.850;2023-08-01T04:07:53;99461.97;;;16.63;100.00
51603;BME280;37954;51.980;5.850;2023-08-01T04:12:06;99455.16;;;16.65;100.00
51603;BME280;37954;51.980;5.850;2023-08-01T04:16:19;99465.16;;;16.70;100.00
51603;BME280;37954;51.980;5.850;2023-08-01T04:20:30;99466.75;;;16.71;100.00
51603;BME280;37954;51.980;5.850;2023-08-01T04:24:42;99463.47;;;16.74;100.00
51603;BME280;37954;51.980;5.850;2023-08-01T04:28:54;99462.25;;;16.80;100.00
51603;BME280;37954;51.980;5.850;2023-08-01T04:33:06;99461.16;;;16.81;100.00
51603;BME280;37954;51.980;5.850;2023-08-01T04:37:17;99461.97;;;16.82;100.00
51603;BME280;37954;51.980;5.850;2023-08-01T04:41:32;99453.94;;;16.77;100.00
51603;BME280;37954;51.980;5.850;2023-08-01T04:45:43;99451.72;;;16.79;100.00
51603;BME280;37954;51.980;5.850;2023-08-01T04:49:55;99454.22;;;16.75;100.00
51603;BME280;37954;51.980;5.850;2023-08-01T04:54:07;99468.31;;;16.77;100.00
51603;BME280;37954;51.980;5.850;2023-08-01T04:58:18;99452.91;;;16.73;100.00
51603;BME280;37954;51.980;5.850;2023-08-01T05:02:30;99458.53;;;16.76;100.00
51603;BME280;37954;51.980;5.850;2023-08-01T05:06:42;99467.19;;;16.78;100.00
51603;BME280;37954;51.980;5.850;2023-08-01T05:10:54;99473.31;;;16.84;100.00
51603;BME280;37954;51.980;5.850;2023-08-01T05:15:06;99460.28;;;16.86;100.00
51603;BME280;37954;51.980;5.850;2023-08-01T05:19:18;99463.50;;;16.88;100.00
51603;BME280;37954;51.980;5.850;2023-08-01T05:23:29;99471.28;;;16.94;100.00
51603;BME280;37954;51.980;5.850;2023-08-01T05:27:41;99479.47;;;17.08;100.00
51603;BME280;37954;51.980;5.850;2023-08-01T05:31:53;99495.84;;;17.17;100.00
51603;BME280;37954;51.980;5.850;2023-08-01T05:36:05;99490.22;;;17.13;100.00
51603;BME280;37954;51.980;5.850;2023-08-01T05:40:17;99484.56;;;17.42;100.00
51603;BME280;37954;51.980;5.850;2023-08-01T05:44:28;99481.25;;;17.45;100.00
51603;BME280;37954;51.980;5.850;2023-08-01T05:48:40;99497.44;;;17.50;100.00
51603;BME280;37954;51.980;5.850;2023-08-01T05:52:52;99488.28;;;17.46;100.00
51603;BME280;37954;51.980;5.850;2023-08-01T05:57:04;99499.38;;;17.63;100.00
51603;BME280;37954;51.980;5.850;2023-08-01T06:01:16;99500.53;;;17.76;100.00
51603;BME280;37954;51.980;5.850;2023-08-01T06:05:28;99504.13;;;17.85;100.00
51603;BME280;37954;51.980;5.850;2023-08-01T06:09:40;99496.19;;;17.75;100.00
51603;BME280;37954;51.980;5.850;2023-08-01T06:13:51;99500.72;;;17.80;100.00
51603;BME280;37954;51.980;5.850;2023-08-01T06:18:03;99507.56;;;17.77;100.00
51603;BME280;37954;51.980;5.850;2023-08-01T06:22:15;99517.72;;;17.71;99.51
51603;BME280;37954;51.980;5.850;2023-08-01T06:26:27;99520.34;;;17.77;99.18
51603;BME280;37954;51.980;5.850;2023-08-01T06:30:39;99516.31;;;17.88;98.98
51603;BME280;37954;51.980;5.850;2023-08-01T06:34:51;99522.97;;;17.95;98.32
51603;BME280;37954;51.980;5.850;2023-08-01T06:39:02;99521.47;;;18.17;97.50
51603;BME280;37954;51.980;5.850;2023-08-01T06:43:15;99529.00;;;18.33;96.47
51603;BME280;37954;51.980;5.850;2023-08-01T06:47:26;99525.53;;;18.41;96.08
51603;BME280;37954;51.980;5.850;2023-08-01T06:51:38;99520.41;;;18.40;95.09
51603;BME280;37954;51.980;5.850;2023-08-01T06:55:50;99527.25;;;18.51;94.86
51603;BME280;37954;51.980;5.850;2023-08-01T07:00:02;99528.72;;;18.71;94.24
51603;BME280;37954;51.980;5.850;2023-08-01T07:04:14;99531.72;;;18.83;93.61
51603;BME280;37954;51.980;5.850;2023-08-01T07:08:26;99529.81;;;18.84;92.14
51603;BME280;37954;51.980;5.850;2023-08-01T07:12:38;99528.19;;;18.83;91.57
51603;BME280;37954;51.980;5.850;2023-08-01T07:16:50;99536.44;;;18.91;91.46
51603;BME280;37954;51.980;5.850;2023-08-01T07:21:05;99539.16;;;19.13;91.03
51603;BME280;37954;51.980;5.850;2023-08-01T07:25:16;99533.66;;;19.27;90.29
51603;BME280;37954;51.980;5.850;2023-08-01T07:29:28;99537.38;;;20.24;89.59
51603;BME280;37954;51.980;5.850;2023-08-01T07:33:40;99530.91;;;20.77;85.58
51603;BME280;37954;51.980;5.850;2023-08-01T07:37:52;99526.00;;;21.60;81.07
51603;BME280;37954;51.980;5.850;2023-08-01T07:42:04;99540.63;;;22.90;74.93
51603;BME280;37954;51.980;5.850;2023-08-01T07:46:16;99536.69;;;23.00;71.90
51603;BME280;37954;51.980;5.850;2023-08-01T07:50:27;99536.06;;;23.93;69.86
51603;BME280;37954;51.980;5.850;2023-08-01T07:54:39;99531.03;;;24.56;67.16
51603;BME280;37954;51.980;5.850;2023-08-01T07:58:51;99545.03;;;25.04;62.98
51603;BME280;37954;51.980;5.850;2023-08-01T08:03:02;99550.84;;;24.38;62.58
51603;BME280;37954;51.980;5.850;2023-08-01T08:07:14;99544.81;;;23.75;62.24
51603;BME280;37954;51.980;5.850;2023-08-01T08:11:26;99535.97;;;23.24;63.58
51603;BME280;37954;51.980;5.850;2023-08-01T08:15:38;99541.16;;;22.34;65.40
51603;BME280;37954;51.980;5.850;2023-08-01T08:19:49;99545.19;;;21.43;67.92
51603;BME280;37954;51.980;5.850;2023-08-01T08:24:01;99553.97;;;20.62;70.68
51603;BME280;37954;51.980;5.850;2023-08-01T08:28:13;99552.88;;;20.15;73.36
51603;BME280;37954;51.980;5.850;2023-08-01T08:32:25;99547.28;;;20.77;76.51
51603;BME280;37954;51.980;5.850;2023-08-01T08:36:37;99556.34;;;22.73;76.44
51603;BME280;37954;51.980;5.850;2023-08-01T08:41:09;99559.75;;;22.78;70.96
51603;BME280;37954;51.980;5.850;2023-08-01T08:45:21;99555.34;;;23.73;70.70
51603;BME280;37954;51.980;5.850;2023-08-01T08:49:33;99551.69;;;24.90;66.87
51603;BME280;37954;51.980;5.850;2023-08-01T08:53:45;99557.63;;;24.80;63.16
51603;BME280;37954;51.980;5.850;2023-08-01T08:57:59;99556.72;;;24.88;62.24
51603;BME280;37954;51.980;5.850;2023-08-01T09:02:11;99553.63;;;24.78;62.54
51603;BME280;37954;51.980;5.850;2023-08-01T09:06:32;99548.84;;;25.71;59.68
51603;BME280;37954;51.980;5.850;2023-08-01T09:10:43;99554.63;;;26.13;58.79
51603;BME280;37954;51.980;5.850;2023-08-01T09:14:56;99561.75;;;26.14;58.40
51603;BME280;37954;51.980;5.850;2023-08-01T09:19:11;99558.81;;;25.91;56.83
51603;BME280;37954;51.980;5.850;2023-08-01T09:23:25;99555.50;;;26.17;56.85
51603;BME280;37954;51.980;5.850;2023-08-01T09:27:40;99558.25;;;26.17;54.63
51603;BME280;37954;51.980;5.850;2023-08-01T09:31:51;99567.66;;;26.00;54.51
51603;BME280;37954;51.980;5.850;2023-08-01T09:36:04;99572.53;;;25.47;54.08
51603;BME280;37954;51.980;5.850;2023-08-01T09:40:16;99582.47;;;25.36;55.08
51603;BME280;37954;51.980;5.850;2023-08-01T09:44:29;99589.06;;;25.19;54.00
51603;BME280;37954;51.980;5.850;2023-08-01T09:48:41;99596.19;;;25.08;53.25
51603;BME280;37954;51.980;5.850;2023-08-01T09:52:53;99590.19;;;25.18;52.83
51603;BME280;37954;51.980;5.850;2023-08-01T09:57:06;99587.81;;;25.88;53.92
51603;BME280;37954;51.980;5.850;2023-08-01T10:01:20;99599.34;;;26.73;51.30
51603;BME280;37954;51.980;5.850;2023-08-01T10:05:33;99606.47;;;26.58;50.12
51603;BME280;37954;51.980;5.850;2023-08-01T10:09:46;99596.19;;;26.23;50.99
51603;BME280;37954;51.980;5.850;2023-08-01T10:13:58;99605.03;;;26.80;49.05
51603;BME280;37954;51.980;5.850;2023-08-01T10:18:10;99609.59;;;27.26;47.99
51603;BME280;37954;51.980;5.850;2023-08-01T10:22:23;99596.69;;;27.69;45.79
51603;BME280;37954;51.980;5.850;2023-08-01T10:26:36;99619.75;;;27.80;46.19
51603;BME280;37954;51.980;5.850;2023-08-01T10:30:47;99612.84;;;28.13;46.00
51603;BME280;37954;51.980;5.850;2023-08-01T10:34:59;99620.38;;;28.16;44.51
51603;BME280;37954;51.980;5.850;2023-08-01T10:39:21;99616.16;;;28.45;43.99
51603;BME280;37954;51.980;5.850;2023-08-01T10:43:33;99613.69;;;28.89;43.17
51603;BME280;37954;51.980;5.850;2023-08-01T10:47:44;99615.38;;;28.97;41.40
51603;BME280;37954;51.980;5.850;2023-08-01T10:51:56;99629.59;;;28.23;42.92
51603;BME280;37954;51.980;5.850;2023-08-01T10:56:15;99628.56;;;27.66;44.27
51603;BME280;37954;51.980;5.850;2023-08-01T11:00:27;99618.03;;;27.53;45.10
51603;BME280;37954;51.980;5.850;2023-08-01T11:04:39;99625.53;;;27.94;45.07
51603;BME280;37954;51.980;5.850;2023-08-01T11:08:51;99623.53;;;27.72;45.45
51603;BME280;37954;51.980;5.850;2023-08-01T11:13:03;99623.63;;;27.98;43.34
51603;BME280;37954;51.980;5.850;2023-08-01T11:17:14;99617.31;;;28.44;44.11
51603;BME280;37954;51.980;5.850;2023-08-01T11:21:27;99638.28;;;28.97;42.75
51603;BME280;37954;51.980;5.850;2023-08-01T11:25:41;99628.03;;;28.98;42.36
51603;BME280;37954;51.980;5.850;2023-08-01T11:29:57;99639.69;;;28.84;42.11
51603;BME280;37954;51.980;5.850;2023-08-01T11:34:09;99651.78;;;28.76;42.66
51603;BME280;37954;51.980;5.850;2023-08-01T11:38:25;99665.75;;;28.83;42.28
51603;BME280;37954;51.980;5.850;2023-08-01T11:42:37;99653.50;;;28.35;42.75
51603;BME280;37954;51.980;5.850;2023-08-01T11:46:49;99661.13;;;28.68;42.37
51603;BME280;37954;51.980;5.850;2023-08-01T11:51:01;99676.25;;;28.28;42.11
51603;BME280;37954;51.980;5.850;2023-08-01T11:55:26;99677.41;;;27.47;41.95
51603;BME280;37954;51.980;5.850;2023-08-01T11:59:48;99670.75;;;26.30;43.21
51603;BME280;37954;51.980;5.850;2023-08-01T12:04:00;99670.41;;;26.32;44.72
51603;BME280;37954;51.980;5.850;2023-08-01T12:08:13;99666.03;;;26.62;44.99
51603;BME280;37954;51.980;5.850;2023-08-01T12:12:28;99660.97;;;26.64;45.03
51603;BME280;37954;51.980;5.850;2023-08-01T12:16:42;99675.69;;;26.25;45.22
51603;BME280;37954;51.980;5.850;2023-08-01T12:20:56;99671.53;;;25.59;46.34
51603;BME280;37954;51.980;5.850;2023-08-01T12:25:08;99686.53;;;24.85;47.01
51603;BME280;37954;51.980;5.850;2023-08-01T12:29:20;99694.28;;;24.35;48.76
51603;BME280;37954;51.980;5.850;2023-08-01T12:33:32;99708.50;;;24.16;50.19
51603;BME280;37954;51.980;5.850;2023-08-01T12:37:44;99705.56;;;24.21;50.97
51603;BME280;37954;51.980;5.850;2023-08-01T12:41:56;99713.75;;;24.54;50.41
51603;BME280;37954;51.980;5.850;2023-08-01T12:46:07;99722.56;;;24.47;50.07
51603;BME280;37954;51.980;5.850;2023-08-01T12:50:19;99715.13;;;24.60;50.12
51603;BME280;37954;51.980;5.850;2023-08-01T12:54:31;99711.56;;;24.59;49.07
51603;BME280;37954;51.980;5.850;2023-08-01T12:58:43;99722.28;;;24.28;49.68
51603;BME280;37954;51.980;5.850;2023-08-01T13:02:55;99729.78;;;24.19;50.78
51603;BME280;37954;51.980;5.850;2023-08-01T13:07:06;99709.59;;;24.23;50.67
51603;BME280;37954;51.980;5.850;2023-08-01T13:11:18;99713.44;;;24.22;49.90
51603;BME280;37954;51.980;5.850;2023-08-01T13:15:30;99704.47;;;24.46;51.28
51603;BME280;37954;51.980;5.850;2023-08-01T13:19:43;99699.47;;;24.73;51.00
51603;BME280;37954;51.980;5.850;2023-08-01T13:23:55;99712.06;;;24.98;49.83
51603;BME280;37954;51.980;5.850;2023-08-01T13:28:07;99706.00;;;25.05;48.88
51603;BME280;37954;51.980;5.850;2023-08-01T13:32:19;99709.78;;;25.24;47.86
51603;BME280;37954;51.980;5.850;2023-08-01T13:36:31;99711.16;;;24.94;47.47
51603;BME280;37954;51.980;5.850;2023-08-01T13:40:46;99735.28;;;24.64;47.75
51603;BME280;37954;51.980;5.850;2023-08-01T13:44:59;99718.69;;;24.60;47.77
51603;BME280;37954;51.980;5.850;2023-08-01T13:49:10;99738.91;;;24.44;46.93
51603;BME280;37954;51.980;5.850;2023-08-01T13:53:24;99752.63;;;24.11;47.57
51603;BME280;37954;51.980;5.850;2023-08-01T13:57:36;99748.53;;;23.63;48.74
51603;BME280;37954;51.980;5.850;2023-08-01T14:01:48;99749.03;;;23.36;49.29
51603;BME280;37954;51.980;5.850;2023-08-01T14:06:06;99736.81;;;23.24;49.71
51603;BME280;37954;51.980;5.850;2023-08-01T14:10:19;99737.47;;;23.51;50.14
51603;BME280;37954;51.980;5.850;2023-08-01T14:14:31;99740.47;;;24.00;50.31
51603;BME280;37954;51.980;5.850;2023-08-01T14:18:43;99743.38;;;24.36;49.75
51603;BME280;37954;51.980;5.850;2023-08-01T14:22:55;99749.66;;;24.37;48.17
51603;BME280;37954;51.980;5.850;2023-08-01T14:27:18;99758.50;;;24.54;48.52
51603;BME280;37954;51.980;5.850;2023-08-01T14:31:29;99741.97;;;24.42;49.08
51603;BME280;37954;51.980;5.850;2023-08-01T14:35:41;99762.56;;;24.93;49.39
51603;BME280;37954;51.980;5.850;2023-08-01T14:39:54;99723.28;;;24.81;47.46
51603;BME280;37954;51.980;5.850;2023-08-01T14:44:05;99740.88;;;24.55;46.89
51603;BME280;37954;51.980;5.850;2023-08-01T14:48:17;99767.97;;;24.45;46.42
51603;BME280;37954;51.980;5.850;2023-08-01T14:52:30;99777.78;;;24.13;46.33
51603;BME280;37954;51.980;5.850;2023-08-01T14:56:43;99767.44;;;23.56;47.71
51603;BME280;37954;51.980;5.850;2023-08-01T15:00:55;99768.56;;;23.25;48.96
51603;BME280;37954;51.980;5.850;2023-08-01T15:05:06;99777.88;;;23.04;49.97
51603;BME280;37954;51.980;5.850;2023-08-01T15:09:18;99770.41;;;22.83;51.09
51603;BME280;37954;51.980;5.850;2023-08-01T15:13:30;99776.84;;;22.70;51.42
51603;BME280;37954;51.980;5.850;2023-08-01T15:17:45;99775.31;;;22.52;52.38
51603;BME280;37954;51.980;5.850;2023-08-01T15:21:57;99754.09;;;22.49;52.76
51603;BME280;37954;51.980;5.850;2023-08-01T15:26:09;99771.41;;;22.79;52.97
51603;BME280;37954;51.980;5.850;2023-08-01T15:30:29;99775.50;;;23.02;52.08
51603;BME280;37954;51.980;5.850;2023-08-01T15:34:41;99779.72;;;23.20;51.83
51603;BME280;37954;51.980;5.850;2023-08-01T15:38:53;99781.69;;;23.20;51.06
51603;BME280;37954;51.980;5.850;2023-08-01T15:43:05;99763.16;;;23.17;51.20
51603;BME280;37954;51.980;5.850;2023-08-01T15:47:17;99787.34;;;23.15;51.03
51603;BME280;37954;51.980;5.850;2023-08-01T15:51:29;99795.41;;;23.11;51.42
51603;BME280;37954;51.980;5.850;2023-08-01T15:55:40;99794.91;;;22.71;52.00
51603;BME280;37954;51.980;5.850;2023-08-01T15:59:52;99817.69;;;22.37;53.06
51603;BME280;37954;51.980;5.850;2023-08-01T16:04:04;99811.44;;;22.11;54.28
51603;BME280;37954;51.980;5.850;2023-08-01T16:08:16;99801.75;;;21.70;56.88
51603;BME280;37954;51.980;5.850;2023-08-01T16:12:28;99798.66;;;21.46;57.87
51603;BME280;37954;51.980;5.850;2023-08-01T16:16:40;99791.47;;;21.19;58.26
51603;BME280;37954;51.980;5.850;2023-08-01T16:20:52;99826.16;;;21.10;59.54
51603;BME280;37954;51.980;5.850;2023-08-01T16:25:04;99848.59;;;20.67;62.91
51603;BME280;37954;51.980;5.850;2023-08-01T16:29:16;99837.97;;;20.21;65.69
51603;BME280;37954;51.980;5.850;2023-08-01T16:33:33;99846.31;;;20.02;67.35
51603;BME280;37954;51.980;5.850;2023-08-01T16:37:45;99835.06;;;19.81;68.27
51603;BME280;37954;51.980;5.850;2023-08-01T16:41:57;99837.09;;;19.76;68.67
51603;BME280;37954;51.980;5.850;2023-08-01T16:46:11;99837.78;;;19.81;68.74
51603;BME280;37954;51.980;5.850;2023-08-01T16:50:23;99838.84;;;19.94;68.79
51603;BME280;37954;51.980;5.850;2023-08-01T16:54:35;99837.59;;;20.14;68.58
51603;BME280;37954;51.980;5.850;2023-08-01T16:58:46;99833.03;;;20.23;68.38
51603;BME280;37954;51.980;5.850;2023-08-01T17:03:01;99839.25;;;20.37;68.23
51603;BME280;37954;51.980;5.850;2023-08-01T17:07:13;99833.44;;;20.61;67.95
51603;BME280;37954;51.980;5.850;2023-08-01T17:11:25;99834.69;;;20.77;67.73
51603;BME280;37954;51.980;5.850;2023-08-01T17:15:37;99836.34;;;20.87;67.23
51603;BME280;37954;51.980;5.850;2023-08-01T17:19:48;99829.13;;;20.91;67.09
51603;BME280;37954;51.980;5.850;2023-08-01T17:24:01;99845.22;;;20.93;66.80
51603;BME280;37954;51.980;5.850;2023-08-01T17:28:12;99828.47;;;20.85;66.19
51603;BME280;37954;51.980;5.850;2023-08-01T17:32:24;99836.34;;;20.87;66.13
51603;BME280;37954;51.980;5.850;2023-08-01T17:36:36;99849.97;;;20.87;65.92
51603;BME280;37954;51.980;5.850;2023-08-01T17:40:49;99828.25;;;20.73;65.47
51603;BME280;37954;51.980;5.850;2023-08-01T17:45:00;99838.06;;;20.83;65.62
51603;BME280;37954;51.980;5.850;2023-08-01T17:49:12;99832.28;;;20.76;64.83
51603;BME280;37954;51.980;5.850;2023-08-01T17:53:24;99838.88;;;20.53;63.92
51603;BME280;37954;51.980;5.850;2023-08-01T17:57:36;99846.06;;;20.48;64.26
51603;BME280;37954;51.980;5.850;2023-08-01T18:01:48;99833.00;;;20.37;64.29
51603;BME280;37954;51.980;5.850;2023-08-01T18:06:09;99839.53;;;20.36;64.48
51603;BME280;37954;51.980;5.850;2023-08-01T18:10:24;99852.16;;;20.32;64.40
51603;BME280;37954;51.980;5.850;2023-08-01T18:14:38;99838.63;;;20.27;64.31
51603;BME280;37954;51.980;5.850;2023-08-01T18:18:51;99860.63;;;20.44;64.39
51603;BME280;37954;51.980;5.850;2023-08-01T18:23:05;99852.34;;;20.35;64.25
51603;BME280;37954;51.980;5.850;2023-08-01T18:27:17;99845.72;;;20.28;64.49
51603;BME280;37954;51.980;5.850;2023-08-01T18:31:29;99852.16;;;20.32;64.13
51603;BME280;37954;51.980;5.850;2023-08-01T18:35:44;99859.22;;;20.33;64.06
51603;BME280;37954;51.980;5.850;2023-08-01T18:39:56;99856.25;;;20.21;63.88
51603;BME280;37954;51.980;5.850;2023-08-01T18:44:08;99851.72;;;20.16;63.70
51603;BME280;37954;51.980;5.850;2023-08-01T18:48:20;99856.69;;;20.14;63.74
51603;BME280;37954;51.980;5.850;2023-08-01T18:52:32;99884.25;;;20.12;63.88
51603;BME280;37954;51.980;5.850;2023-08-01T18:56:45;99867.03;;;20.03;63.94
51603;BME280;37954;51.980;5.850;2023-08-01T19:00:57;99866.41;;;19.93;63.96
51603;BME280;37954;51.980;5.850;2023-08-01T19:05:10;99876.53;;;19.92;64.09
51603;BME280;37954;51.980;5.850;2023-08-01T19:09:22;99861.44;;;19.72;64.18
51603;BME280;37954;51.980;5.850;2023-08-01T19:13:34;99894.31;;;19.90;64.48
51603;BME280;37954;51.980;5.850;2023-08-01T19:17:46;99884.72;;;19.78;64.60
51603;BME280;37954;51.980;5.850;2023-08-01T19:21:58;99892.31;;;19.81;64.78
51603;BME280;37954;51.980;5.850;2023-08-01T19:26:10;99896.53;;;19.88;65.03
51603;BME280;37954;51.980;5.850;2023-08-01T19:30:22;99887.47;;;19.78;65.13
51603;BME280;37954;51.980;5.850;2023-08-01T19:34:34;99892.31;;;19.81;65.13
51603;BME280;37954;51.980;5.850;2023-08-01T19:38:46;99901.78;;;19.84;65.48
51603;BME280;37954;51.980;5.850;2023-08-01T19:42:57;99904.31;;;19.80;65.84
51603;BME280;37954;51.980;5.850;2023-08-01T19:47:09;99913.69;;;19.88;66.14
51603;BME280;37954;51.980;5.850;2023-08-01T19:51:26;99897.75;;;19.81;66.67
51603;BME280;37954;51.980;5.850;2023-08-01T19:55:38;99907.34;;;19.79;66.82
51603;BME280;37954;51.980;5.850;2023-08-01T19:59:50;99906.97;;;19.72;66.78
51603;BME280;37954;51.980;5.850;2023-08-01T20:04:02;99901.31;;;19.68;66.80
51603;BME280;37954;51.980;5.850;2023-08-01T20:08:14;99911.41;;;19.68;67.04
51603;BME280;37954;51.980;5.850;2023-08-01T20:12:26;99904.13;;;19.63;67.20
51603;BME280;37954;51.980;5.850;2023-08-01T20:16:38;99913.72;;;19.61;67.05
51603;BME280;37954;51.980;5.850;2023-08-01T20:20:52;99897.59;;;19.51;67.32
51603;BME280;37954;51.980;5.850;2023-08-01T20:25:05;99897.78;;;19.54;67.21
51603;BME280;37954;51.980;5.850;2023-08-01T20:29:17;99907.06;;;19.53;67.53
51603;BME280;37954;51.980;5.850;2023-08-01T20:33:31;99911.28;;;19.59;67.83
51603;BME280;37954;51.980;5.850;2023-08-01T20:37:43;99905.16;;;19.54;67.67
51603;BME280;37954;51.980;5.850;2023-08-01T20:41:56;99902.94;;;19.56;67.81
51603;BME280;37954;51.980;5.850;2023-08-01T20:46:32;99909.78;;;19.53;68.05
51603;BME280;37954;51.980;5.850;2023-08-01T20:50:44;99897.72;;;19.40;68.32
51603;BME280;37954;51.980;5.850;2023-08-01T20:54:56;99890.28;;;19.32;68.28
51603;BME280;37954;51.980;5.850;2023-08-01T20:59:08;99899.56;;;19.31;68.63
51603;BME280;37954;51.980;5.850;2023-08-01T21:03:19;99897.03;;;19.21;68.58
51603;BME280;37954;51.980;5.850;2023-08-01T21:07:31;99898.31;;;19.10;68.94
51603;BME280;37954;51.980;5.850;2023-08-01T21:11:43;99886.81;;;18.99;69.53
51603;BME280;37954;51.980;5.850;2023-08-01T21:15:55;99882.56;;;18.93;69.73
51603;BME280;37954;51.980;5.850;2023-08-01T21:20:07;99881.94;;;18.83;70.00
51603;BME280;37954;51.980;5.850;2023-08-01T21:24:22;99889.97;;;18.74;70.61
51603;BME280;37954;51.980;5.850;2023-08-01T21:28:34;99889.13;;;18.60;70.99
51603;BME280;37954;51.980;5.850;2023-08-01T21:32:46;99879.19;;;18.50;70.87
51603;BME280;37954;51.980;5.850;2023-08-01T21:36:58;99887.28;;;18.36;71.40
51603;BME280;37954;51.980;5.850;2023-08-01T21:41:16;99879.97;;;18.18;71.53
51603;BME280;37954;51.980;5.850;2023-08-01T21:45:28;99884.97;;;18.11;71.85
51603;BME280;37954;51.980;5.850;2023-08-01T21:49:40;99877.84;;;17.96;72.26
51603;BME280;37954;51.980;5.850;2023-08-01T21:53:52;99892.06;;;17.88;72.68
51603;BME280;37954;51.980;5.850;2023-08-01T21:58:04;99898.69;;;17.82;72.97
51603;BME280;37954;51.980;5.850;2023-08-01T22:02:16;99877.44;;;17.65;73.46
51603;BME280;37954;51.980;5.850;2023-08-01T22:06:27;99867.47;;;17.56;73.83
51603;BME280;37954;51.980;5.850;2023-08-01T22:10:39;99875.91;;;17.54;74.06
51603;BME280;37954;51.980;5.850;2023-08-01T22:14:51;99870.84;;;17.48;74.28
51603;BME280;37954;51.980;5.850;2023-08-01T22:19:03;99881.47;;;17.44;74.64